Terminal Aerodrome Forecast
Issued by NWS Boston, MA

Home | Current Version | Previous Version | Text Only | Print | Product List | Glossary On
Versions: 1 2 3 4 5 6 7 8 9 10 11 12 13 14 15 16 17 18 19 20 21 22 23 24 25 26
000
FTUS41 KBOX 051237 AAA
TAFBDL
TAF AMD
KBDL 051237Z 0513/0618 02012G18KT P6SM OVC014
     FM051600 02012G21KT P6SM OVC025
     FM052100 02010G24KT P6SM OVC035
     FM052300 02009KT P6SM OVC025
     FM060600 36005KT 6SM BR BKN020=

USA.gov is the U.S. government's official web portal to all federal, state and local government web resources and services.